Time;durP1;ratioP1;P1;durP2;ratioP2;P2;SDS_P1;SDS_P2;PMS_P1;PMS_P2;Temp;Humidity;BMP_temperature;BMP_pressure;BME280_temperature;BME280_humidity;BME280_pressure;Samples;Min_cycle;Max_cycle;Signal;HPM_P1;HPM_P2
2022/04/08 00:01:25;;;;;;;1794.78;999.90;;;;;;;4.52;100.00;97832.03;5072566;28;20045;-80
2022/04/08 00:03:58;;;;;;;1824.32;999.90;;;;;;;4.47;100.00;97839.44;5072873;28;20044;-81
2022/04/08 00:06:31;;;;;;;1864.20;999.90;;;;;;;4.45;100.00;97852.41;5072336;28;20059;-80
2022/04/08 00:09:04;;;;;;;1885.03;999.90;;;;;;;4.46;100.00;97864.78;5101999;28;20063;-80
2022/04/08 00:11:33;;;;;;;1921.15;999.90;;;;;;;4.25;100.00;97843.75;5077775;28;20131;-80
2022/04/08 00:14:01;;;;;;;1955.70;999.90;;;;;;;4.36;100.00;97872.00;5072988;28;20048;-81
2022/04/08 00:16:35;;;;;;;1982.50;999.90;;;;;;;4.21;100.00;97912.75;5066170;28;20040;-80
2022/04/08 00:19:08;;;;;;;1999.90;999.90;;;;;;;4.15;100.00;97920.16;5073460;28;20048;-80
2022/04/08 00:21:36;;;;;;;1999.90;999.90;;;;;;;4.11;100.00;97935.34;5064384;28;20053;-80
2022/04/08 00:24:05;;;;;;;1999.90;999.90;;;;;;;3.96;100.00;97944.53;5074943;28;20051;-79
2022/04/08 00:26:40;;;;;;;1999.90;999.90;;;;;;;3.94;100.00;97954.03;5070203;28;20055;-80
2022/04/08 00:29:13;;;;;;;1999.90;999.90;;;;;;;3.85;100.00;97954.75;5073624;28;20110;-80
2022/04/08 00:31:41;;;;;;;1999.90;999.90;;;;;;;3.81;100.00;97959.16;5072251;28;20425;-80
2022/04/08 00:34:10;;;;;;;1999.90;999.90;;;;;;;3.82;100.00;97965.31;5073905;28;20052;-80
2022/04/08 00:36:43;;;;;;;1999.90;999.90;;;;;;;3.85;100.00;97975.47;5067432;28;20056;-81
2022/04/08 00:39:16;;;;;;;1999.90;999.90;;;;;;;3.86;100.00;97980.53;5066512;28;20381;-82
2022/04/08 00:41:51;;;;;;;1999.90;999.90;;;;;;;3.79;100.00;97988.22;5071382;28;20059;-81
2022/04/08 00:44:24;;;;;;;1999.90;999.90;;;;;;;3.80;100.00;97992.53;5071743;28;20056;-80
2022/04/08 00:46:52;;;;;;;1999.90;999.90;;;;;;;3.75;100.00;97998.00;5067866;28;20052;-80
2022/04/08 00:49:25;;;;;;;1999.90;999.90;;;;;;;3.72;100.00;97998.63;5074204;28;20045;-80
2022/04/08 00:51:54;;;;;;;1999.90;999.90;;;;;;;3.72;100.00;98015.53;5071137;28;20072;-80
2022/04/08 00:54:30;;;;;;;1999.90;999.90;;;;;;;3.66;100.00;98013.25;5066743;28;20044;-81
2022/04/08 00:57:05;;;;;;;1999.90;999.90;;;;;;;3.66;100.00;98021.31;5067382;28;20052;-80
2022/04/08 00:59:39;;;;;;;1999.90;999.90;;;;;;;3.61;100.00;98027.59;5064526;28;20051;-81
2022/04/08 01:02:12;;;;;;;1999.90;999.90;;;;;;;3.50;100.00;98037.75;5071689;28;20048;-80
2022/04/08 01:04:40;;;;;;;1999.90;999.90;;;;;;;3.55;100.00;98043.03;5072454;28;20051;-80
2022/04/08 01:07:14;;;;;;;1999.90;999.90;;;;;;;3.54;100.00;98052.19;5071567;28;20493;-82
2022/04/08 01:09:48;;;;;;;1999.90;999.90;;;;;;;3.54;100.00;98065.63;5067675;28;20049;-81
2022/04/08 01:12:22;;;;;;;1999.90;999.90;;;;;;;3.47;100.00;98075.22;5072706;28;20055;-80
2022/04/08 01:14:59;;;;;;;1999.90;999.90;;;;;;;3.49;100.00;98078.38;5071396;28;20048;-80
2022/04/08 01:17:33;;;;;;;1999.90;999.90;;;;;;;3.44;100.00;98095.41;5072583;28;20489;-81
2022/04/08 01:20:06;;;;;;;1999.90;999.90;;;;;;;3.39;100.00;98104.34;5070972;28;20052;-80
2022/04/08 01:22:40;;;;;;;1999.90;999.90;;;;;;;3.43;100.00;98114.53;5077636;28;20048;-81
2022/04/08 01:25:11;;;;;;;1999.90;999.90;;;;;;;3.42;100.00;98118.31;5072365;28;20045;-81
2022/04/08 01:27:44;;;;;;;1999.90;999.90;;;;;;;3.36;100.00;98128.34;5070398;28;20393;-80
2022/04/08 01:30:17;;;;;;;1999.90;999.90;;;;;;;3.37;100.00;98135.31;5072772;28;20063;-81
2022/04/08 01:32:51;;;;;;;1999.90;999.90;;;;;;;3.36;100.00;98147.97;5070984;28;20055;-82
2022/04/08 01:35:24;;;;;;;1999.90;999.90;;;;;;;3.43;100.00;98155.66;5072332;28;20055;-80
2022/04/08 01:37:57;;;;;;;1999.90;999.90;;;;;;;3.37;100.00;98164.88;5081524;28;20040;-80
2022/04/08 01:40:31;;;;;;;1999.90;999.90;;;;;;;3.32;100.00;98164.97;5072656;28;20048;-80
2022/04/08 01:42:59;;;;;;;1999.90;999.90;;;;;;;3.40;100.00;98173.16;5070901;28;20049;-80
2022/04/08 01:45:32;;;;;;;1999.90;999.90;;;;;;;3.44;100.00;98175.25;5070400;28;20056;-80
2022/04/08 01:48:06;;;;;;;1999.90;999.90;;;;;;;3.40;100.00;98175.06;5070735;28;20052;-80
2022/04/08 01:50:39;;;;;;;1999.90;999.90;;;;;;;3.44;100.00;98176.06;5063511;28;20055;-81
2022/04/08 01:53:15;;;;;;;1999.90;999.90;;;;;;;3.30;100.00;98169.84;5069964;28;20060;-80
2022/04/08 01:55:50;;;;;;;1999.90;999.90;;;;;;;3.29;100.00;98187.88;5071940;28;20043;-80
2022/04/08 01:58:19;;;;;;;1999.90;999.90;;;;;;;3.23;100.00;98195.22;5070079;28;20053;-80
2022/04/08 02:00:52;;;;;;;1999.90;999.90;;;;;;;3.26;100.00;98196.53;5070430;28;20040;-81
2022/04/08 02:03:25;;;;;;;1999.90;999.90;;;;;;;3.20;100.00;98198.50;5072418;28;20040;-80
2022/04/08 02:05:53;;;;;;;1999.90;999.90;;;;;;;3.35;100.00;98215.47;5070733;28;20486;-79
2022/04/08 02:08:27;;;;;;;1999.90;999.90;;;;;;;3.35;100.00;98224.31;5070478;28;20053;-80
2022/04/08 02:10:56;;;;;;;1999.90;999.90;;;;;;;3.33;100.00;98221.13;5072796;28;20053;-80
2022/04/08 02:13:29;;;;;;;1999.90;999.90;;;;;;;3.35;100.00;98226.22;5072539;28;20053;-80
2022/04/08 02:16:03;;;;;;;1999.90;999.90;;;;;;;3.43;100.00;98227.47;5103999;28;20048;-81
2022/04/08 02:18:37;;;;;;;1999.90;999.90;;;;;;;3.38;100.00;98242.59;5064355;28;20052;-81
2022/04/08 02:21:10;;;;;;;1999.90;999.90;;;;;;;3.27;100.00;98224.19;5070273;28;20049;-80
2022/04/08 02:23:39;;;;;;;1999.90;999.90;;;;;;;3.42;100.00;98234.72;5071661;28;20048;-80
2022/04/08 02:26:14;;;;;;;1999.90;999.90;;;;;;;3.35;100.00;98245.03;5067926;28;20059;-80
2022/04/08 02:28:48;;;;;;;1999.90;999.90;;;;;;;3.36;100.00;98254.72;5063850;28;20409;-80
2022/04/08 02:31:16;;;;;;;1999.90;999.90;;;;;;;3.33;100.00;98249.91;5071951;28;20048;-80
2022/04/08 02:33:49;;;;;;;1999.90;999.90;;;;;;;3.27;100.00;98259.94;5057265;28;20390;-80
2022/04/08 02:36:22;;;;;;;1999.38;999.90;;;;;;;3.30;100.00;98277.38;5066476;28;20052;-81
2022/04/08 02:38:50;;;;;;;1999.90;999.90;;;;;;;3.35;100.00;98266.53;5065713;28;20048;-80
2022/04/08 02:41:24;;;;;;;1995.70;999.90;;;;;;;3.25;100.00;98259.44;5070296;28;20393;-81
2022/04/08 02:43:57;;;;;;;1999.90;999.90;;;;;;;3.31;100.00;98274.38;5070233;28;20508;-80
2022/04/08 02:46:30;;;;;;;1999.90;999.90;;;;;;;3.37;100.00;98278.63;5071561;28;20040;-81
2022/04/08 02:49:03;;;;;;;1999.43;999.90;;;;;;;3.29;100.00;98295.41;5071909;28;20044;-81
2022/04/08 02:51:37;;;;;;;1993.35;999.90;;;;;;;3.17;100.00;98279.69;5072123;28;20032;-81
2022/04/08 02:54:10;;;;;;;1993.15;999.90;;;;;;;3.30;100.00;98297.00;5069322;28;20489;-81
2022/04/08 02:56:41;;;;;;;1987.25;999.90;;;;;;;3.18;100.00;98293.94;5062407;28;20048;-79
2022/04/08 02:59:10;;;;;;;1971.20;999.90;;;;;;;3.32;100.00;98310.94;5062462;28;20040;-79
2022/04/08 03:01:43;;;;;;;1973.85;999.90;;;;;;;3.36;100.00;98317.34;5070142;28;20052;-80
2022/04/08 03:04:16;;;;;;;1976.57;999.90;;;;;;;3.32;100.00;98327.06;5070612;28;20055;-79
2022/04/08 03:06:49;;;;;;;1973.63;999.90;;;;;;;3.26;100.00;98332.78;5061500;28;20057;-79
2022/04/08 03:09:22;;;;;;;1972.72;999.90;;;;;;;3.31;100.00;98338.13;5068140;28;20500;-81
2022/04/08 03:11:52;;;;;;;1980.07;999.90;;;;;;;3.20;100.00;98324.81;5066763;28;20417;-81
2022/04/08 03:14:20;;;;;;;;;;;;;;;3.36;100.00;98351.50;5070380;28;20049;-80
2022/04/08 03:16:53;;;;;;;;;;;;;;;3.34;100.00;98367.09;5070699;28;19928;-82
2022/04/08 03:19:26;;;;;;;;;;;;;;;3.30;100.00;98369.59;5070575;28;19924;-79
2022/04/08 03:21:59;;;;;;;;;;;;;;;3.26;100.00;98373.94;5069902;28;19921;-79
2022/04/08 03:24:27;;;;;;;;;;;;;;;3.31;100.00;98383.81;5067571;28;19920;-80
2022/04/08 03:27:01;;;;;;;;;;;;;;;3.27;100.00;98378.19;5070273;28;19924;-79
2022/04/08 03:29:34;;;;;;;;;;;;;;;3.19;100.00;98389.59;5066988;28;19924;-80
2022/04/08 03:32:07;;;;;;;;;;;;;;;3.16;100.00;98382.09;5073588;28;19924;-79
2022/04/08 03:34:40;;;;;;;;;;;;;;;3.14;100.00;98379.72;5072987;28;20285;-78
2022/04/08 03:37:08;;;;;;;;;;;;;;;3.13;100.00;98390.75;5105545;28;19928;-79
2022/04/08 03:39:36;;;;;;;;;;;;;;;3.10;100.00;98399.41;5073756;28;19931;-79
2022/04/08 03:42:06;;;;;;;;;;;;;;;3.09;100.00;98406.63;5073646;28;19927;-79
2022/04/08 03:44:39;;;;;;;;;;;;;;;3.05;100.00;98406.44;5074286;28;19929;-80
2022/04/08 03:47:07;;;;;;;;;;;;;;;3.01;100.00;98401.91;5075143;28;19920;-79
2022/04/08 03:49:40;;;;;;;;;;;;;;;3.03;100.00;98410.47;5075164;28;19927;-79
2022/04/08 03:52:09;;;;;;;;;;;;;;;3.01;100.00;98407.28;5073828;28;19921;-80
2022/04/08 03:54:42;;;;;;;;;;;;;;;2.94;100.00;98402.25;5070006;28;19924;-79
2022/04/08 03:57:11;;;;;;;;;;;;;;;2.99;100.00;98394.13;5070206;28;19920;-80
2022/04/08 03:59:46;;;;;;;;;;;;;;;2.98;100.00;98418.59;5068363;28;19920;-79
2022/04/08 04:02:14;;;;;;;;;;;;;;;3.01;100.00;98429.59;5074946;28;19947;-79
2022/04/08 04:04:49;;;;;;;;;;;;;;;2.98;100.00;98435.50;5068147;28;19932;-79
2022/04/08 04:07:22;;;;;;;;;;;;;;;2.99;100.00;98439.81;5068519;28;20388;-78
2022/04/08 04:09:55;;;;;;;;;;;;;;;2.89;100.00;98432.66;5073492;28;19921;-80
2022/04/08 04:12:24;;;;;;;;;;;;;;;2.87;100.00;98450.13;5084455;28;19927;-79
2022/04/08 04:14:57;;;;;;;;;;;;;;;2.80;100.00;98446.97;5084766;28;19924;-78
2022/04/08 04:17:29;;;;;;;;;;;;;;;2.75;100.00;98461.28;5072468;28;19920;-79
2022/04/08 04:20:04;;;;;;;;;;;;;;;2.79;100.00;98456.94;5075177;28;19927;-79
2022/04/08 04:22:32;;;;;;;;;;;;;;;2.82;100.00;98466.31;5106416;28;19921;-80
2022/04/08 04:25:05;;;;;;;;;;;;;;;2.82;100.00;98466.31;5074732;28;19927;-79
2022/04/08 04:27:34;;;;;;;;;;;;;;;2.87;100.00;98472.44;5094340;28;19927;-80
2022/04/08 04:30:02;;;;;;;;;;;;;;;2.83;100.00;98479.47;5081140;28;20308;-80
2022/04/08 04:32:36;;;;;;;;;;;;;;;2.87;100.00;98483.19;5083486;28;19928;-79
2022/04/08 04:35:09;;;;;;;;;;;;;;;2.91;100.00;98496.84;5074614;28;19924;-80
2022/04/08 04:37:37;;;;;;;;;;;;;;;2.93;100.00;98496.56;5072790;28;19929;-79
2022/04/08 04:40:11;;;;;;;;;;;;;;;2.93;100.00;98505.44;5073138;28;20288;-79
2022/04/08 04:42:45;;;;;;;;;;;;;;;2.96;100.00;98515.59;5072668;28;20276;-81
2022/04/08 04:45:19;;;;;;;;;;;;;;;2.98;100.00;98510.75;5072726;28;19920;-80
2022/04/08 04:47:52;;;;;;;;;;;;;;;2.99;100.00;98527.69;5078829;28;20276;-79
2022/04/08 04:50:19;;;;;;;;;;;;;;;3.00;100.00;98523.91;5081279;28;19927;-80
2022/04/08 04:52:52;;;;;;;;;;;;;;;3.00;100.00;98538.13;5072335;28;19932;-79
2022/04/08 04:55:25;;;;;;;;;;;;;;;2.96;100.00;98547.06;5071556;28;20510;-80
2022/04/08 04:57:59;;;;;;;;;;;;;;;3.06;100.00;98546.97;5071841;28;19939;-79
2022/04/08 05:00:32;;;;;;;;;;;;;;;2.98;100.00;98558.31;5073646;28;19927;-80
2022/04/08 05:03:06;;;;;;;;;;;;;;;2.98;100.00;98555.63;5072811;28;19920;-80
2022/04/08 05:05:39;;;;;;;;;;;;;;;2.82;100.00;98561.13;5064935;28;19927;-80
2022/04/08 05:08:12;;;;;;;;;;;;;;;2.80;100.00;98568.66;5073217;28;19927;-80
2022/04/08 05:10:40;;;;;;;;;;;;;;;2.66;100.00;98575.75;5072271;28;19935;-79
2022/04/08 05:13:09;;;;;;;;;;;;;;;2.69;100.00;98581.38;5073796;28;19932;-79
2022/04/08 05:15:45;;;;;;;;;;;;;;;2.66;100.00;98581.91;5090297;28;19927;-79
2022/04/08 05:18:18;;;;;;;;;;;;;;;2.60;100.00;98596.47;5071747;28;19924;-80
2022/04/08 05:20:45;;;;;;;;;;;;;;;2.63;100.00;98597.81;5081827;28;19927;-79
2022/04/08 05:23:18;;;;;;;;;;;;;;;2.52;100.00;98594.38;5070116;28;19924;-79
2022/04/08 05:25:51;;;;;;;;;;;;;;;2.63;100.00;98595.91;5082344;28;19920;-79
2022/04/08 05:28:26;;;;;;;;;;;;;;;2.62;100.00;98598.88;5072862;28;19925;-79
2022/04/08 05:30:58;;;;;;;;;;;;;;;2.63;100.00;98600.50;5071171;28;19924;-79
2022/04/08 05:33:31;;;;;;;;;;;;;;;2.79;100.00;98603.84;5073064;28;19920;-79
2022/04/08 05:36:04;;;;;;;;;;;;;;;2.84;100.00;98585.81;5071460;28;19920;-79
2022/04/08 05:38:37;;;;;;;;;;;;;;;2.74;100.00;98598.53;5096499;28;19920;-80
2022/04/08 05:41:10;;;;;;;;;;;;;;;2.85;100.00;98608.13;5069501;28;19920;-79
2022/04/08 05:43:45;;;;;;;;;;;;;;;2.93;100.00;98601.34;5071274;28;19924;-80
2022/04/08 05:46:13;;;;;;;;;;;;;;;2.92;100.00;98613.97;5066709;28;19924;-80
2022/04/08 05:48:46;;;;;;;;;;;;;;;2.89;100.00;98619.91;5065971;28;19928;-79
2022/04/08 05:51:19;;;;;;;;;;;;;;;2.98;100.00;98630.88;5071557;28;19932;-80
2022/04/08 05:53:52;;;;;;;;;;;;;;;2.95;100.00;98636.81;5071671;28;19920;-79
2022/04/08 05:56:25;;;;;;;;;;;;;;;3.00;100.00;98650.22;5069331;28;19924;-78
2022/04/08 05:58:59;;;;;;;;;;;;;;;3.01;100.00;98660.69;5060763;28;19947;-80
2022/04/08 06:01:27;;;;;;;;;;;;;;;2.96;100.00;98646.47;5070025;28;19921;-78
2022/04/08 06:03:55;;;;;;;;;;;;;;;2.96;100.00;98649.94;5072100;28;19931;-79
2022/04/08 06:06:28;;;;;;;;;;;;;;;3.01;100.00;98654.47;5075837;28;19920;-79
2022/04/08 06:09:00;;;;;;;;;;;;;;;3.04;100.00;98656.63;5067317;28;19924;-80
2022/04/08 06:11:34;;;;;;;;;;;;;;;3.12;100.00;98660.59;5075340;28;19924;-79
2022/04/08 06:14:08;;;;;;;;;;;;;;;3.14;100.00;98678.03;5065790;28;19921;-79
2022/04/08 06:16:42;;;;;;;;;;;;;;;3.19;100.00;98675.31;5065657;28;19921;-79
2022/04/08 06:19:15;;;;;;;;;;;;;;;3.14;100.00;98688.00;5071288;28;19920;-80
2022/04/08 06:21:48;;;;;;;;;;;;;;;3.15;100.00;98690.41;5073538;28;19928;-79
2022/04/08 06:24:21;;;;;;;;;;;;;;;2.93;100.00;98692.69;5067122;28;20296;-79
2022/04/08 06:26:54;;;;;;;1668.63;999.90;;;;;;;2.62;100.00;98684.81;5062791;28;19932;-80
2022/04/08 06:29:23;;;;;;;1652.78;999.90;;;;;;;2.60;100.00;98686.97;5060687;28;20044;-80
2022/04/08 06:31:51;;;;;;;1663.13;999.90;;;;;;;2.64;100.00;98674.63;5061657;28;20037;-79
2022/04/08 06:34:24;;;;;;;1651.22;999.90;;;;;;;2.59;100.00;98691.53;5060428;28;20052;-80
2022/04/08 06:36:57;;;;;;;1641.40;999.90;;;;;;;2.34;100.00;98687.09;5063481;28;20489;-79
2022/04/08 06:39:31;;;;;;;1648.20;999.90;;;;;;;2.33;100.00;98675.53;5070991;28;20055;-81
2022/04/08 06:42:07;;;;;;;1653.05;999.90;;;;;;;2.38;100.00;98672.81;5071580;28;20511;-79
2022/04/08 06:44:36;;;;;;;1665.60;999.90;;;;;;;2.45;100.00;98682.47;5061242;28;20036;-78
2022/04/08 06:47:04;;;;;;;1662.65;999.90;;;;;;;2.36;100.00;98674.19;5053648;28;20045;-80
2022/04/08 06:49:43;;;;;;;1671.72;999.90;;;;;;;2.47;100.00;98667.72;5054534;28;20040;-81
2022/04/08 06:52:11;;;;;;;1682.50;999.90;;;;;;;2.76;100.00;98679.63;5084967;28;20049;-80
2022/04/08 06:54:40;;;;;;;1698.72;999.90;;;;;;;2.91;100.00;98668.00;5067312;28;20044;-80
2022/04/08 06:57:13;;;;;;;1724.68;999.90;;;;;;;3.25;100.00;98651.91;5081081;28;20581;-80
2022/04/08 06:59:47;;;;;;;1736.25;999.90;;;;;;;3.56;100.00;98676.66;5062900;28;20041;-79
2022/04/08 07:02:20;;;;;;;1726.38;999.90;;;;;;;3.43;100.00;98681.88;5070517;28;20106;-79
2022/04/08 07:04:50;;;;;;;1716.13;999.90;;;;;;;3.51;100.00;98670.50;5067379;28;20040;-81
2022/04/08 07:07:27;;;;;;;1712.72;999.90;;;;;;;3.56;100.00;98681.22;5073287;28;21296;-80
2022/04/08 07:10:00;;;;;;;1725.93;999.90;;;;;;;3.61;100.00;98688.44;5073701;28;20051;-80
2022/04/08 07:12:29;;;;;;;1732.00;999.90;;;;;;;3.57;100.00;98693.56;5072197;28;20049;-80
2022/04/08 07:15:04;;;;;;;1744.47;999.90;;;;;;;3.61;100.00;98688.44;5052812;28;20056;-81
2022/04/08 07:17:38;;;;;;;1754.20;999.90;;;;;;;3.54;100.00;98694.94;5044246;28;20048;-80
2022/04/08 07:20:14;;;;;;;1776.60;999.90;;;;;;;3.70;100.00;98695.63;5052249;28;20056;-81
2022/04/08 07:22:47;;;;;;;1792.97;999.90;;;;;;;4.00;100.00;98692.91;5046885;28;20059;-80
2022/04/08 07:25:17;;;;;;;1815.82;999.90;;;;;;;4.23;100.00;98702.88;5053267;28;20064;-81
2022/04/08 07:27:52;;;;;;;1821.72;999.90;;;;;;;4.18;100.00;98708.31;5048814;28;20118;-79
2022/04/08 07:30:23;;;;;;;1820.82;999.90;;;;;;;4.17;100.00;98709.44;5060481;28;20095;-81
2022/04/08 07:32:56;;;;;;;1819.57;999.90;;;;;;;4.32;100.00;98713.03;5052135;28;20075;-81
2022/04/08 07:35:30;;;;;;;1823.95;999.90;;;;;;;4.30;100.00;98712.53;5048286;28;20057;-80
2022/04/08 07:37:58;;;;;;;1812.82;999.90;;;;;;;4.33;100.00;98711.94;5077172;28;20048;-80
2022/04/08 07:40:32;;;;;;;1819.25;999.90;;;;;;;4.46;100.00;98707.75;5068805;28;20056;-79
2022/04/08 07:43:05;;;;;;;1819.55;999.90;;;;;;;4.48;100.00;98716.34;5046348;28;20397;-79
2022/04/08 07:45:39;;;;;;;1775.40;999.90;;;;;;;4.45;100.00;98725.81;5075525;28;20048;-79
2022/04/08 07:48:12;;;;;;;1750.65;999.90;;;;;;;4.40;100.00;98721.25;5053630;28;20061;-80
2022/04/08 07:50:41;;;;;;;1748.20;999.90;;;;;;;4.42;100.00;98713.72;5046706;28;20048;-80
2022/04/08 07:53:15;;;;;;;1741.93;999.90;;;;;;;4.57;100.00;98725.38;5049185;28;20055;-80
2022/04/08 07:55:48;;;;;;;1693.90;999.90;;;;;;;4.63;100.00;98726.13;5051270;28;20045;-79
2022/04/08 07:58:21;;;;;;;1637.70;999.90;;;;;;;4.65;100.00;98730.13;5048052;28;20044;-80
2022/04/08 08:00:55;;;;;;;1610.53;999.90;;;;;;;4.80;100.00;98742.63;5045333;28;20063;-80
2022/04/08 08:03:28;;;;;;;1587.75;999.90;;;;;;;4.63;100.00;98739.59;5043308;28;20057;-79
2022/04/08 08:05:56;;;;;;;1508.63;999.90;;;;;;;4.75;100.00;98756.97;5058382;28;20143;-81
2022/04/08 08:08:27;;;;;;;1468.57;999.90;;;;;;;4.75;100.00;98756.16;5046137;28;20044;-81
2022/04/08 08:11:00;;;;;;;1476.50;999.90;;;;;;;4.70;100.00;98745.44;5052178;28;20067;-80
2022/04/08 08:13:33;;;;;;;1409.15;999.90;;;;;;;4.75;100.00;98756.16;5043244;28;20620;-81
2022/04/08 08:16:03;;;;;;;1385.25;999.90;;;;;;;4.81;100.00;98755.00;5048797;28;20040;-82
2022/04/08 08:18:37;;;;;;;1382.68;999.90;;;;;;;5.02;100.00;98760.13;5046904;28;20056;-80
2022/04/08 08:21:10;;;;;;;1324.18;999.90;;;;;;;4.78;100.00;98769.06;5042954;28;20056;-80
2022/04/08 08:23:38;;;;;;;1291.43;999.90;;;;;;;4.69;100.00;98762.72;5045137;28;20044;-81
2022/04/08 08:26:13;;;;;;;1279.88;999.90;;;;;;;4.68;100.00;98764.59;5045812;28;20052;-80
2022/04/08 08:28:46;;;;;;;1257.72;999.90;;;;;;;4.64;100.00;98766.28;5045633;28;20052;-81
2022/04/08 08:31:20;;;;;;;1236.93;999.90;;;;;;;4.47;100.00;98772.09;5045151;28;20067;-80
2022/04/08 08:33:53;;;;;;;1196.13;999.90;;;;;;;4.41;100.00;98773.25;5046297;28;20052;-81
2022/04/08 08:36:22;;;;;;;1169.03;999.90;;;;;;;4.61;100.00;98774.91;5052858;28;20044;-81
2022/04/08 08:38:55;;;;;;;1076.40;994.47;;;;;;;4.80;100.00;98788.44;5040957;28;20578;-81
2022/04/08 08:41:29;;;;;;;1189.93;999.90;;;;;;;4.87;100.00;98796.19;5042088;28;20048;-80
2022/04/08 08:43:58;;;;;;;1132.25;999.90;;;;;;;4.70;100.00;98789.34;5040239;28;20052;-80
2022/04/08 08:46:29;;;;;;;1182.72;999.90;;;;;;;4.86;100.00;98787.28;5040300;28;20786;-81
2022/04/08 08:49:04;;;;;;;1179.97;999.90;;;;;;;4.84;100.00;98794.84;5045507;28;20052;-83
2022/04/08 08:51:39;;;;;;;1189.60;999.90;;;;;;;5.10;100.00;98795.34;5043879;28;20045;-80
2022/04/08 08:54:12;;;;;;;1182.53;999.90;;;;;;;4.97;100.00;98804.13;5042058;28;20053;-79
2022/04/08 08:56:41;;;;;;;899.80;836.95;;;;;;;4.64;100.00;98803.16;5047236;28;20056;-79
2022/04/08 08:59:15;;;;;;;290.83;275.02;;;;;;;4.58;100.00;98799.72;5058493;28;20064;-81
2022/04/08 09:01:50;;;;;;;259.10;245.32;;;;;;;4.33;100.00;98781.97;5065253;28;20755;-80
2022/04/08 09:04:25;;;;;;;202.73;191.88;;;;;;;4.39;100.00;98803.16;5060663;28;20060;-80
2022/04/08 09:06:58;;;;;;;261.65;247.73;;;;;;;4.40;100.00;98803.97;5045128;28;20056;-80
2022/04/08 09:09:31;;;;;;;354.63;334.48;;;;;;;4.64;100.00;98800.47;5041148;28;20060;-82
2022/04/08 09:12:14;;;;;;;922.30;858.30;;;;;;;4.66;100.00;98798.31;5043046;28;20433;-80
2022/04/08 09:14:48;;;;;;;958.22;890.22;;;;;;;4.81;100.00;98800.03;5043452;28;20056;-80
2022/04/08 09:17:24;;;;;;;1108.85;999.90;;;;;;;4.81;100.00;98806.22;5043686;28;20044;-80
2022/04/08 09:20:00;;;;;;;654.15;611.15;;;;;;;5.28;100.00;98804.53;5040203;28;20044;-81
2022/04/08 09:22:33;;;;;;;1161.25;999.90;;;;;;;5.57;100.00;98800.09;5048364;28;20044;-80
2022/04/08 09:25:10;;;;;;;1072.72;992.05;;;;;;;5.26;100.00;98776.25;5040097;28;20067;-81
2022/04/08 09:27:43;;;;;;;693.60;647.85;;;;;;;5.37;100.00;98799.31;5047033;28;20059;-81
2022/04/08 09:30:19;;;;;;;258.27;244.32;;;;;;;5.36;100.00;98783.38;5057155;28;20060;-81
2022/04/08 09:32:50;;;;;;;116.70;110.70;;;;;;;5.39;100.00;98794.41;5045134;28;20496;-81
2022/04/08 09:35:24;;;;;;;68.50;64.80;;;;;;;5.28;100.00;98766.78;5045955;28;20055;-80
2022/04/08 09:37:59;;;;;;;45.60;43.17;;;;;;;5.33;100.00;98776.72;5037919;28;20493;-80
2022/04/08 09:40:37;;;;;;;44.08;41.70;;;;;;;5.55;100.00;98792.31;5040573;28;20047;-81
2022/04/08 09:43:10;;;;;;;59.65;56.45;;;;;;;5.56;100.00;98783.09;5041413;28;20643;-80
2022/04/08 09:45:44;;;;;;;33.95;32.10;;;;;;;5.41;100.00;98786.03;5040612;28;20391;-81
2022/04/08 09:48:19;;;;;;;18.33;17.23;;;;;;;5.66;100.00;98776.72;5045427;28;20067;-81
2022/04/08 09:50:53;;;;;;;20.70;19.50;;;;;;;5.96;100.00;98770.03;5048046;28;20063;-81
2022/04/08 09:53:28;;;;;;;9.27;8.68;;;;;;;5.70;100.00;98774.25;5044738;28;20056;-81
2022/04/08 09:56:01;;;;;;;7.78;7.22;;;;;;;6.04;100.00;98789.41;5043050;28;20064;-81
2022/04/08 09:58:36;;;;;;;8.75;8.15;;;;;;;6.33;100.00;98772.16;5049405;28;21076;-79
2022/04/08 10:01:11;;;;;;;8.07;7.47;;;;;;;6.19;100.00;98775.63;5045405;28;20067;-80
2022/04/08 10:03:45;;;;;;;4.05;3.75;;;;;;;5.75;100.00;98783.06;5043418;28;20051;-80
2022/04/08 10:06:19;;;;;;;3.92;3.63;;;;;;;5.78;100.00;98792.47;5040487;28;20048;-80
2022/04/08 10:08:52;;;;;;;3.60;3.40;;;;;;;5.85;100.00;98789.41;5046445;28;20063;-80
2022/04/08 10:11:34;;;;;;;3.20;3.00;;;;;;;5.93;100.00;98770.63;5042255;28;20063;-80
2022/04/08 10:14:24;;;;;;;2.90;2.70;;;;;;;6.11;100.00;98776.31;5051016;28;20056;-78
2022/04/08 10:16:58;;;;;;;3.47;3.28;;;;;;;6.21;100.00;98786.13;5039626;28;20048;-80
2022/04/08 10:19:34;;;;;;;4.50;4.20;;;;;;;6.21;100.00;98770.72;5045609;28;20048;-79
2022/04/08 10:22:16;;;;;;;3.92;3.63;;;;;;;5.91;100.00;98772.03;5041663;28;20052;-80
2022/04/08 10:24:53;;;;;;;2.88;2.67;;;;;;;6.18;100.00;98774.03;5058315;28;20056;-80
2022/04/08 10:27:31;;;;;;;;;;;;;;;6.14;100.00;98767.63;5041833;28;20056;-80
2022/04/08 10:30:12;;;;;;;3.25;3.05;;;;;;;6.15;100.00;98765.72;5046921;28;19935;-79
2022/04/08 10:32:47;;;;;;;2.53;2.42;;;;;;;6.16;100.00;98788.91;5045118;28;20057;-79
2022/04/08 10:35:21;;;;;;;1.88;1.77;;;;;;;6.32;100.00;98765.94;5044695;28;20804;-79
2022/04/08 10:37:56;;;;;;;2.05;1.95;;;;;;;6.50;100.00;98785.88;5071115;28;20076;-80
2022/04/08 10:40:31;;;;;;;1.80;1.70;;;;;;;6.33;100.00;98767.53;5041420;28;20047;-80
2022/04/08 10:43:06;;;;;;;1.10;1.10;;;;;;;6.15;100.00;98773.84;5050364;28;20044;-78
2022/04/08 10:45:40;;;;;;;1.30;1.30;;;;;;;6.28;100.00;98776.56;5049360;28;20049;-80
2022/04/08 10:48:14;;;;;;;1.10;1.10;;;;;;;6.35;100.00;98756.44;5042025;28;20134;-80
2022/04/08 10:51:03;;;;;;;1.00;1.00;;;;;;;6.30;100.00;98754.66;5041702;28;20587;-80
2022/04/08 10:53:40;;;;;;;0.90;0.90;;;;;;;6.59;100.00;98762.47;5042622;28;20056;-80
2022/04/08 10:56:12;;;;;;;0.90;0.90;;;;;;;6.54;100.00;98754.44;5051405;28;21381;-81
2022/04/08 10:58:49;;;;;;;1.00;1.00;;;;;;;6.86;100.00;98762.75;5038475;28;20049;-79
2022/04/08 11:01:25;;;;;;;0.90;0.90;;;;;;;6.79;100.00;98744.22;5046204;28;20052;-79
2022/04/08 11:04:00;;;;;;;0.60;0.60;;;;;;;6.76;100.00;98737.50;5047664;28;20055;-79
2022/04/08 11:06:36;;;;;;;0.63;0.63;;;;;;;6.78;100.00;98742.63;5045205;28;20048;-80
2022/04/08 11:09:05;;;;;;;0.60;0.60;;;;;;;7.08;100.00;98741.16;5045270;28;20056;-80
2022/04/08 11:11:35;;;;;;;0.70;0.70;;;;;;;7.48;100.00;98741.38;5042037;28;20056;-80
2022/04/08 11:14:05;;;;;;;0.60;0.60;;;;;;;7.25;100.00;98748.66;5041965;28;20847;-80
2022/04/08 11:16:40;;;;;;;0.50;0.50;;;;;;;7.12;100.00;98744.84;5043357;28;20802;-81
2022/04/08 11:19:15;;;;;;;0.70;0.70;;;;;;;6.78;100.00;98746.13;5043462;28;20048;-80
2022/04/08 11:21:51;;;;;;;0.60;0.60;;;;;;;6.87;100.00;98745.44;5043372;28;20052;-80
2022/04/08 11:24:19;;;;;;;0.50;0.50;;;;;;;7.23;100.00;98734.63;5040370;28;20067;-80
2022/04/08 11:26:54;;;;;;;0.70;0.70;;;;;;;7.40;100.00;98728.56;5048116;28;20056;-80
2022/04/08 11:29:28;;;;;;;0.43;0.43;;;;;;;6.99;100.00;98732.19;5044521;28;20051;-79
2022/04/08 11:32:08;;;;;;;0.60;0.60;;;;;;;7.08;100.00;98737.66;5048062;28;20052;-79
2022/04/08 11:34:41;;;;;;;0.50;0.50;;;;;;;7.13;100.00;98732.94;5043168;28;20147;-81
2022/04/08 11:37:26;;;;;;;0.50;0.50;;;;;;;7.18;100.00;98733.94;5044794;28;20067;-80
2022/04/08 11:39:58;;;;;;;0.40;0.40;;;;;;;7.34;100.00;98720.88;5042723;28;20059;-81
2022/04/08 11:42:27;;;;;;;0.50;0.50;;;;;;;7.62;100.00;98716.13;5062876;28;20060;-81
2022/04/08 11:45:01;;;;;;;0.40;0.40;;;;;;;7.61;100.00;98715.34;5046576;28;20386;-80
2022/04/08 11:47:31;;;;;;;0.50;0.50;;;;;;;7.82;100.00;98721.03;5072255;28;20048;-80
2022/04/08 11:50:06;;;;;;;0.40;0.40;;;;;;;7.56;100.00;98712.75;5063287;28;20061;-79
2022/04/08 11:52:51;;;;;;;0.50;0.50;;;;;;;7.51;100.00;98712.06;5047227;28;20067;-79
2022/04/08 11:55:26;;;;;;;0.40;0.40;;;;;;;7.62;100.00;98722.34;5049870;28;20052;-81